Aviation Digital Data Service (ADDS)

Output produced by METARs form (2123 UTC 18 April 2021)
found at http://www.aviationweather.gov/metar/data/
 
METAR text: VVDN 182100Z 00000KT 8000 FEW015 25/23 Q1009 NOSIG
Conditions at: VVDN (DA NANG INTL ARP, VN) observed 2100 UTC 18 April 2021
Temperature: 25.0°C (77°F)
Dewpoint: 23.0°C (73°F) [RH = 89%]
Pressure (altimeter): 29.79 inches Hg (1009.0 mb)
Winds: calm
Visibility: 5 miles ( 8 km)
Ceiling: at least 12,000 feet AGL
Clouds: few clouds at 1500 feet AGL
Weather: no significant weather observed at this time

METAR text: VVDN 182030Z VRB01KT 8000 FEW015 25/23 Q1009 NOSIG
Conditions at: VVDN (DA NANG INTL ARP, VN) observed 2030 UTC 18 April 2021
Temperature: 25.0°C (77°F)
Dewpoint: 23.0°C (73°F) [RH = 89%]
Pressure (altimeter): 29.79 inches Hg (1009.0 mb)
Winds: variable direction winds at 1 MPH (1 knots; 0.5 m/s)
Visibility: 5 miles ( 8 km)
Ceiling: at least 12,000 feet AGL
Clouds: few clouds at 1500 feet AGL
Weather: no significant weather observed at this time

METAR text: VVDN 182000Z 18001KT 8000 FEW015 25/23 Q1009 NOSIG
Conditions at: VVDN (DA NANG INTL ARP, VN) observed 2000 UTC 18 April 2021
Temperature: 25.0°C (77°F)
Dewpoint: 23.0°C (73°F) [RH = 89%]
Pressure (altimeter): 29.79 inches Hg (1009.0 mb)
Winds: from the S (180 degrees) at 1 MPH (1 knots; 0.5 m/s)
Visibility: 5 miles ( 8 km)
Ceiling: at least 12,000 feet AGL
Clouds: few clouds at 1500 feet AGL
Weather: no significant weather observed at this time

METAR text: VVDN 181930Z 23001KT 8000 FEW015 25/23 Q1009 NOSIG
Conditions at: VVDN (DA NANG INTL ARP, VN) observed 1930 UTC 18 April 2021
Temperature: 25.0°C (77°F)
Dewpoint: 23.0°C (73°F) [RH = 89%]
Pressure (altimeter): 29.79 inches Hg (1009.0 mb)
Winds: from the SW (230 degrees) at 1 MPH (1 knots; 0.5 m/s)
Visibility: 5 miles ( 8 km)
Ceiling: at least 12,000 feet AGL
Clouds: few clouds at 1500 feet AGL
Weather: no significant weather observed at this time

METAR text: VVDN 181900Z 22001KT 8000 FEW015 25/22 Q1010 NOSIG
Conditions at: VVDN (DA NANG INTL ARP, VN) observed 1900 UTC 18 April 2021
Temperature: 25.0°C (77°F)
Dewpoint: 22.0°C (72°F) [RH = 83%]
Pressure (altimeter): 29.82 inches Hg (1010.0 mb)
Winds: from the SW (220 degrees) at 1 MPH (1 knots; 0.5 m/s)
Visibility: 5 miles ( 8 km)
Ceiling: at least 12,000 feet AGL
Clouds: few clouds at 1500 feet AGL
Weather: no significant weather observed at this time

METAR text: VVDN 181830Z 22002KT 8000 FEW015 25/23 Q1010 NOSIG
Conditions at: VVDN (DA NANG INTL ARP, VN) observed 1830 UTC 18 April 2021
Temperature: 25.0°C (77°F)
Dewpoint: 23.0°C (73°F) [RH = 89%]
Pressure (altimeter): 29.82 inches Hg (1010.0 mb)
Winds: from the SW (220 degrees) at 2 MPH (2 knots; 1.0 m/s)
Visibility: 5 miles ( 8 km)
Ceiling: at least 12,000 feet AGL
Clouds: few clouds at 1500 feet AGL
Weather: no significant weather observed at this time

METAR text: VVDN 181800Z 24001KT 9999 FEW015 25/23 Q1010 NOSIG
Conditions at: VVDN (DA NANG INTL ARP, VN) observed 1800 UTC 18 April 2021
Temperature: 25.0°C (77°F)
Dewpoint: 23.0°C (73°F) [RH = 89%]
Pressure (altimeter): 29.82 inches Hg (1010.0 mb)
Winds: from the WSW (240 degrees) at 1 MPH (1 knots; 0.5 m/s)
Visibility: 6 or more miles (10+ km)
Ceiling: at least 12,000 feet AGL
Clouds: few clouds at 1500 feet AGL
Weather: no significant weather observed at this time

METAR text: VVDN 181730Z 21001KT 9999 FEW015 25/23 Q1011 NOSIG
Conditions at: VVDN (DA NANG INTL ARP, VN) observed 1730 UTC 18 April 2021
Temperature: 25.0°C (77°F)
Dewpoint: 23.0°C (73°F) [RH = 89%]
Pressure (altimeter): 29.85 inches Hg (1011.0 mb)
Winds: from the SSW (210 degrees) at 1 MPH (1 knots; 0.5 m/s)
Visibility: 6 or more miles (10+ km)
Ceiling: at least 12,000 feet AGL
Clouds: few clouds at 1500 feet AGL
Weather: no significant weather observed at this time

METAR text: VVDN 181700Z 23002KT 9999 FEW015 26/23 Q1012 NOSIG
Conditions at: VVDN (DA NANG INTL ARP, VN) observed 1700 UTC 18 April 2021
Temperature: 26.0°C (79°F)
Dewpoint: 23.0°C (73°F) [RH = 84%]
Pressure (altimeter): 29.88 inches Hg (1012.0 mb)
Winds: from the SW (230 degrees) at 2 MPH (2 knots; 1.0 m/s)
Visibility: 6 or more miles (10+ km)
Ceiling: at least 12,000 feet AGL
Clouds: few clouds at 1500 feet AGL
Weather: no significant weather observed at this time

METAR text: VVDN 181630Z 22001KT 9999 FEW015 26/23 Q1012 NOSIG
Conditions at: VVDN (DA NANG INTL ARP, VN) observed 1630 UTC 18 April 2021
Temperature: 26.0°C (79°F)
Dewpoint: 23.0°C (73°F) [RH = 84%]
Pressure (altimeter): 29.88 inches Hg (1012.0 mb)
Winds: from the SW (220 degrees) at 1 MPH (1 knots; 0.5 m/s)
Visibility: 6 or more miles (10+ km)
Ceiling: at least 12,000 feet AGL
Clouds: few clouds at 1500 feet AGL
Weather: no significant weather observed at this time

METAR text: VVDN 181600Z 20001KT 9999 FEW015 26/23 Q1012 NOSIG
Conditions at: VVDN (DA NANG INTL ARP, VN) observed 1600 UTC 18 April 2021
Temperature: 26.0°C (79°F)
Dewpoint: 23.0°C (73°F) [RH = 84%]
Pressure (altimeter): 29.88 inches Hg (1012.0 mb)
Winds: from the SSW (200 degrees) at 1 MPH (1 knots; 0.5 m/s)
Visibility: 6 or more miles (10+ km)
Ceiling: at least 12,000 feet AGL
Clouds: few clouds at 1500 feet AGL
Weather: no significant weather observed at this time

METAR text: VVDN 181530Z 22002KT 9999 FEW015 26/23 Q1013 NOSIG
Conditions at: VVDN (DA NANG INTL ARP, VN) observed 1530 UTC 18 April 2021
Temperature: 26.0°C (79°F)
Dewpoint: 23.0°C (73°F) [RH = 84%]
Pressure (altimeter): 29.91 inches Hg (1013.0 mb)
Winds: from the SW (220 degrees) at 2 MPH (2 knots; 1.0 m/s)
Visibility: 6 or more miles (10+ km)
Ceiling: at least 12,000 feet AGL
Clouds: few clouds at 1500 feet AGL
Weather: no significant weather observed at this time

METAR text: VVDN 181500Z 24002KT 9999 FEW015 26/23 Q1012 NOSIG
Conditions at: VVDN (DA NANG INTL ARP, VN) observed 1500 UTC 18 April 2021
Temperature: 26.0°C (79°F)
Dewpoint: 23.0°C (73°F) [RH = 84%]
Pressure (altimeter): 29.88 inches Hg (1012.0 mb)
Winds: from the WSW (240 degrees) at 2 MPH (2 knots; 1.0 m/s)
Visibility: 6 or more miles (10+ km)
Ceiling: at least 12,000 feet AGL
Clouds: few clouds at 1500 feet AGL
Weather: no significant weather observed at this time

METAR text: VVDN 181430Z VRB01KT 9999 FEW015 26/23 Q1012 NOSIG
Conditions at: VVDN (DA NANG INTL ARP, VN) observed 1430 UTC 18 April 2021
Temperature: 26.0°C (79°F)
Dewpoint: 23.0°C (73°F) [RH = 84%]
Pressure (altimeter): 29.88 inches Hg (1012.0 mb)
Winds: variable direction winds at 1 MPH (1 knots; 0.5 m/s)
Visibility: 6 or more miles (10+ km)
Ceiling: at least 12,000 feet AGL
Clouds: few clouds at 1500 feet AGL
Weather: no significant weather observed at this time

METAR text: VVDN 181400Z VRB02KT 9999 FEW015 26/23 Q1012 NOSIG
Conditions at: VVDN (DA NANG INTL ARP, VN) observed 1400 UTC 18 April 2021
Temperature: 26.0°C (79°F)
Dewpoint: 23.0°C (73°F) [RH = 84%]
Pressure (altimeter): 29.88 inches Hg (1012.0 mb)
Winds: variable direction winds at 2 MPH (2 knots; 1.0 m/s)
Visibility: 6 or more miles (10+ km)
Ceiling: at least 12,000 feet AGL
Clouds: few clouds at 1500 feet AGL
Weather: no significant weather observed at this time

METAR text: VVDN 181330Z VRB02KT 9999 FEW015 27/23 Q1012 NOSIG
Conditions at: VVDN (DA NANG INTL ARP, VN) observed 1330 UTC 18 April 2021
Temperature: 27.0°C (81°F)
Dewpoint: 23.0°C (73°F) [RH = 79%]
Pressure (altimeter): 29.88 inches Hg (1012.0 mb)
Winds: variable direction winds at 2 MPH (2 knots; 1.0 m/s)
Visibility: 6 or more miles (10+ km)
Ceiling: at least 12,000 feet AGL
Clouds: few clouds at 1500 feet AGL
Weather: no significant weather observed at this time

METAR text: VVDN 181300Z VRB02KT 9999 FEW015 27/23 Q1011 NOSIG
Conditions at: VVDN (DA NANG INTL ARP, VN) observed 1300 UTC 18 April 2021
Temperature: 27.0°C (81°F)
Dewpoint: 23.0°C (73°F) [RH = 79%]
Pressure (altimeter): 29.85 inches Hg (1011.0 mb)
Winds: variable direction winds at 2 MPH (2 knots; 1.0 m/s)
Visibility: 6 or more miles (10+ km)
Ceiling: at least 12,000 feet AGL
Clouds: few clouds at 1500 feet AGL
Weather: no significant weather observed at this time

METAR text: VVDN 181230Z VRB01KT 9999 FEW015 27/23 Q1011 NOSIG
Conditions at: VVDN (DA NANG INTL ARP, VN) observed 1230 UTC 18 April 2021
Temperature: 27.0°C (81°F)
Dewpoint: 23.0°C (73°F) [RH = 79%]
Pressure (altimeter): 29.85 inches Hg (1011.0 mb)
Winds: variable direction winds at 1 MPH (1 knots; 0.5 m/s)
Visibility: 6 or more miles (10+ km)
Ceiling: at least 12,000 feet AGL
Clouds: few clouds at 1500 feet AGL
Weather: no significant weather observed at this time

METAR text: VVDN 181200Z 08003KT 040V130 9999 FEW015 27/23 Q1011 NOSIG
Conditions at: VVDN (DA NANG INTL ARP, VN) observed 1200 UTC 18 April 2021
Temperature: 27.0°C (81°F)
Dewpoint: 23.0°C (73°F) [RH = 79%]
Pressure (altimeter): 29.85 inches Hg (1011.0 mb)
Winds: from the E (80 degrees) at 3 MPH (3 knots; 1.5 m/s)
Visibility: 6 or more miles (10+ km)
Ceiling: at least 12,000 feet AGL
Clouds: few clouds at 1500 feet AGL
Weather: no significant weather observed at this time

METAR text: VVDN 181130Z 07005KT 9999 FEW015 27/23 Q1010 NOSIG
Conditions at: VVDN (DA NANG INTL ARP, VN) observed 1130 UTC 18 April 2021
Temperature: 27.0°C (81°F)
Dewpoint: 23.0°C (73°F) [RH = 79%]
Pressure (altimeter): 29.82 inches Hg (1010.0 mb)
Winds: from the ENE (70 degrees) at 6 MPH (5 knots; 2.6 m/s)
Visibility: 6 or more miles (10+ km)
Ceiling: at least 12,000 feet AGL
Clouds: few clouds at 1500 feet AGL
Weather: no significant weather observed at this time

METAR text: VVDN 181100Z 07005KT 9999 FEW015 27/23 Q1010 NOSIG
Conditions at: VVDN (DA NANG INTL ARP, VN) observed 1100 UTC 18 April 2021
Temperature: 27.0°C (81°F)
Dewpoint: 23.0°C (73°F) [RH = 79%]
Pressure (altimeter): 29.82 inches Hg (1010.0 mb)
Winds: from the ENE (70 degrees) at 6 MPH (5 knots; 2.6 m/s)
Visibility: 6 or more miles (10+ km)
Ceiling: at least 12,000 feet AGL
Clouds: few clouds at 1500 feet AGL
Weather: no significant weather observed at this time

METAR text: VVDN 181030Z 09006KT 050V120 9999 FEW015 28/22 Q1010 NOSIG
Conditions at: VVDN (DA NANG INTL ARP, VN) observed 1030 UTC 18 April 2021
Temperature: 28.0°C (82°F)
Dewpoint: 22.0°C (72°F) [RH = 70%]
Pressure (altimeter): 29.82 inches Hg (1010.0 mb)
Winds: from the E (90 degrees) at 7 MPH (6 knots; 3.1 m/s)
Visibility: 6 or more miles (10+ km)
Ceiling: at least 12,000 feet AGL
Clouds: few clouds at 1500 feet AGL
Weather: no significant weather observed at this time

METAR text: VVDN 181000Z 09008KT 050V120 9999 FEW015 28/22 Q1009 NOSIG
Conditions at: VVDN (DA NANG INTL ARP, VN) observed 1000 UTC 18 April 2021
Temperature: 28.0°C (82°F)
Dewpoint: 22.0°C (72°F) [RH = 70%]
Pressure (altimeter): 29.79 inches Hg (1009.0 mb)
Winds: from the E (90 degrees) at 9 MPH (8 knots; 4.1 m/s)
Visibility: 6 or more miles (10+ km)
Ceiling: at least 12,000 feet AGL
Clouds: few clouds at 1500 feet AGL
Weather: no significant weather observed at this time

METAR text: VVDN 180930Z 09009KT 9999 FEW015 29/22 Q1008 NOSIG
Conditions at: VVDN (DA NANG INTL ARP, VN) observed 0930 UTC 18 April 2021
Temperature: 29.0°C (84°F)
Dewpoint: 22.0°C (72°F) [RH = 66%]
Pressure (altimeter): 29.76 inches Hg (1008.0 mb)
Winds: from the E (90 degrees) at 10 MPH (9 knots; 4.6 m/s)
Visibility: 6 or more miles (10+ km)
Ceiling: at least 12,000 feet AGL
Clouds: few clouds at 1500 feet AGL
Weather: no significant weather observed at this time

METAR text: VVDN 180900Z 08009KT 9999 FEW015 30/21 Q1008 NOSIG
Conditions at: VVDN (DA NANG INTL ARP, VN) observed 0900 UTC 18 April 2021
Temperature: 30.0°C (86°F)
Dewpoint: 21.0°C (70°F) [RH = 59%]
Pressure (altimeter): 29.76 inches Hg (1008.0 mb)
Winds: from the E (80 degrees) at 10 MPH (9 knots; 4.6 m/s)
Visibility: 6 or more miles (10+ km)
Ceiling: at least 12,000 feet AGL
Clouds: few clouds at 1500 feet AGL
Weather: no significant weather observed at this time

METAR text: VVDN 180830Z 08010KT 9999 FEW015 30/21 Q1009 NOSIG
Conditions at: VVDN (DA NANG INTL ARP, VN) observed 0830 UTC 18 April 2021
Temperature: 30.0°C (86°F)
Dewpoint: 21.0°C (70°F) [RH = 59%]
Pressure (altimeter): 29.79 inches Hg (1009.0 mb)
Winds: from the E (80 degrees) at 12 MPH (10 knots; 5.1 m/s)
Visibility: 6 or more miles (10+ km)
Ceiling: at least 12,000 feet AGL
Clouds: few clouds at 1500 feet AGL
Weather: no significant weather observed at this time

METAR text: VVDN 180800Z 08010KT 9999 FEW015 30/21 Q1009 NOSIG
Conditions at: VVDN (DA NANG INTL ARP, VN) observed 0800 UTC 18 April 2021
Temperature: 30.0°C (86°F)
Dewpoint: 21.0°C (70°F) [RH = 59%]
Pressure (altimeter): 29.79 inches Hg (1009.0 mb)
Winds: from the E (80 degrees) at 12 MPH (10 knots; 5.1 m/s)
Visibility: 6 or more miles (10+ km)
Ceiling: at least 12,000 feet AGL
Clouds: few clouds at 1500 feet AGL
Weather: no significant weather observed at this time

METAR text: VVDN 180730Z 09009KT 9999 FEW015 31/21 Q1009 NOSIG
Conditions at: VVDN (DA NANG INTL ARP, VN) observed 0730 UTC 18 April 2021
Temperature: 31.0°C (88°F)
Dewpoint: 21.0°C (70°F) [RH = 55%]
Pressure (altimeter): 29.79 inches Hg (1009.0 mb)
Winds: from the E (90 degrees) at 10 MPH (9 knots; 4.6 m/s)
Visibility: 6 or more miles (10+ km)
Ceiling: at least 12,000 feet AGL
Clouds: few clouds at 1500 feet AGL
Weather: no significant weather observed at this time

METAR text: VVDN 180700Z 07009KT 9999 FEW015 32/21 Q1009 NOSIG
Conditions at: VVDN (DA NANG INTL ARP, VN) observed 0700 UTC 18 April 2021
Temperature: 32.0°C (90°F)
Dewpoint: 21.0°C (70°F) [RH = 52%]
Pressure (altimeter): 29.79 inches Hg (1009.0 mb)
Winds: from the ENE (70 degrees) at 10 MPH (9 knots; 4.6 m/s)
Visibility: 6 or more miles (10+ km)
Ceiling: at least 12,000 feet AGL
Clouds: few clouds at 1500 feet AGL
Weather: no significant weather observed at this time

METAR text: VVDN 180630Z 08007KT 040V120 9999 FEW015 33/20 Q1010 NOSIG
Conditions at: VVDN (DA NANG INTL ARP, VN) observed 0630 UTC 18 April 2021
Temperature: 33.0°C (91°F)
Dewpoint: 20.0°C (68°F) [RH = 46%]
Pressure (altimeter): 29.82 inches Hg (1010.0 mb)
Winds: from the E (80 degrees) at 8 MPH (7 knots; 3.6 m/s)
Visibility: 6 or more miles (10+ km)
Ceiling: at least 12,000 feet AGL
Clouds: few clouds at 1500 feet AGL
Weather: no significant weather observed at this time

METAR text: VVDN 180600Z 08007KT 040V120 9999 FEW015 33/20 Q1010 NOSIG
Conditions at: VVDN (DA NANG INTL ARP, VN) observed 0600 UTC 18 April 2021
Temperature: 33.0°C (91°F)
Dewpoint: 20.0°C (68°F) [RH = 46%]
Pressure (altimeter): 29.82 inches Hg (1010.0 mb)
Winds: from the E (80 degrees) at 8 MPH (7 knots; 3.6 m/s)
Visibility: 6 or more miles (10+ km)
Ceiling: at least 12,000 feet AGL
Clouds: few clouds at 1500 feet AGL
Weather: no significant weather observed at this time

METAR text: VVDN 180530Z 11005KT 040V150 9999 FEW015 33/21 Q1011 NOSIG
Conditions at: VVDN (DA NANG INTL ARP, VN) observed 0530 UTC 18 April 2021
Temperature: 33.0°C (91°F)
Dewpoint: 21.0°C (70°F) [RH = 49%]
Pressure (altimeter): 29.85 inches Hg (1011.0 mb)
Winds: from the ESE (110 degrees) at 6 MPH (5 knots; 2.6 m/s)
Visibility: 6 or more miles (10+ km)
Ceiling: at least 12,000 feet AGL
Clouds: few clouds at 1500 feet AGL
Weather: no significant weather observed at this time

METAR text: VVDN 180500Z 09006KT 030V130 9999 FEW015 33/21 Q1011 NOSIG
Conditions at: VVDN (DA NANG INTL ARP, VN) observed 0500 UTC 18 April 2021
Temperature: 33.0°C (91°F)
Dewpoint: 21.0°C (70°F) [RH = 49%]
Pressure (altimeter): 29.85 inches Hg (1011.0 mb)
Winds: from the E (90 degrees) at 7 MPH (6 knots; 3.1 m/s)
Visibility: 6 or more miles (10+ km)
Ceiling: at least 12,000 feet AGL
Clouds: few clouds at 1500 feet AGL
Weather: no significant weather observed at this time

METAR text: VVDN 180430Z 10007KT 070V140 9999 FEW015 32/22 Q1012 NOSIG
Conditions at: VVDN (DA NANG INTL ARP, VN) observed 0430 UTC 18 April 2021
Temperature: 32.0°C (90°F)
Dewpoint: 22.0°C (72°F) [RH = 56%]
Pressure (altimeter): 29.88 inches Hg (1012.0 mb)
Winds: from the E (100 degrees) at 8 MPH (7 knots; 3.6 m/s)
Visibility: 6 or more miles (10+ km)
Ceiling: at least 12,000 feet AGL
Clouds: few clouds at 1500 feet AGL
Weather: no significant weather observed at this time

METAR text: VVDN 180400Z 19003KT 090V260 9999 FEW015 33/19 Q1012 NOSIG
Conditions at: VVDN (DA NANG INTL ARP, VN) observed 0400 UTC 18 April 2021
Temperature: 33.0°C (91°F)
Dewpoint: 19.0°C (66°F) [RH = 44%]
Pressure (altimeter): 29.88 inches Hg (1012.0 mb)
Winds: from the S (190 degrees) at 3 MPH (3 knots; 1.5 m/s)
Visibility: 6 or more miles (10+ km)
Ceiling: at least 12,000 feet AGL
Clouds: few clouds at 1500 feet AGL
Weather: no significant weather observed at this time

METAR text: VVDN 180330Z 23006KT 190V280 9999 FEW015 32/20 Q1013 NOSIG
Conditions at: VVDN (DA NANG INTL ARP, VN) observed 0330 UTC 18 April 2021
Temperature: 32.0°C (90°F)
Dewpoint: 20.0°C (68°F) [RH = 49%]
Pressure (altimeter): 29.91 inches Hg (1013.0 mb)
Winds: from the SW (230 degrees) at 7 MPH (6 knots; 3.1 m/s)
Visibility: 6 or more miles (10+ km)
Ceiling: at least 12,000 feet AGL
Clouds: few clouds at 1500 feet AGL
Weather: no significant weather observed at this time

METAR text: VVDN 180300Z 18004KT 140V260 CAVOK 32/20 Q1013 NOSIG
Conditions at: VVDN (DA NANG INTL ARP, VN) observed 0300 UTC 18 April 2021
Temperature: 32.0°C (90°F)
Dewpoint: 20.0°C (68°F) [RH = 49%]
Pressure (altimeter): 29.91 inches Hg (1013.0 mb)
Winds: from the S (180 degrees) at 5 MPH (4 knots; 2.1 m/s)
Visibility: 6 or more miles (10+ km)
Ceiling: ceiling and visibility are OK
Clouds: unknown
Weather: no significant weather observed at this time

METAR text: VVDN 180230Z 16003KT 100V210 CAVOK 32/20 Q1013 NOSIG
Conditions at: VVDN (DA NANG INTL ARP, VN) observed 0230 UTC 18 April 2021
Temperature: 32.0°C (90°F)
Dewpoint: 20.0°C (68°F) [RH = 49%]
Pressure (altimeter): 29.91 inches Hg (1013.0 mb)
Winds: from the SSE (160 degrees) at 3 MPH (3 knots; 1.5 m/s)
Visibility: 6 or more miles (10+ km)
Ceiling: ceiling and visibility are OK
Clouds: unknown
Weather: no significant weather observed at this time

METAR text: VVDN 180200Z 20003KT 140V290 CAVOK 30/20 Q1013 NOSIG
Conditions at: VVDN (DA NANG INTL ARP, VN) observed 0200 UTC 18 April 2021
Temperature: 30.0°C (86°F)
Dewpoint: 20.0°C (68°F) [RH = 55%]
Pressure (altimeter): 29.91 inches Hg (1013.0 mb)
Winds: from the SSW (200 degrees) at 3 MPH (3 knots; 1.5 m/s)
Visibility: 6 or more miles (10+ km)
Ceiling: ceiling and visibility are OK
Clouds: unknown
Weather: no significant weather observed at this time

METAR text: VVDN 180130Z VRB02KT CAVOK 29/20 Q1014 NOSIG
Conditions at: VVDN (DA NANG INTL ARP, VN) observed 0130 UTC 18 April 2021
Temperature: 29.0°C (84°F)
Dewpoint: 20.0°C (68°F) [RH = 58%]
Pressure (altimeter): 29.94 inches Hg (1014.0 mb)
Winds: variable direction winds at 2 MPH (2 knots; 1.0 m/s)
Visibility: 6 or more miles (10+ km)
Ceiling: ceiling and visibility are OK
Clouds: unknown
Weather: no significant weather observed at this time

METAR text: VVDN 180100Z VRB02KT CAVOK 28/21 Q1014 NOSIG
Conditions at: VVDN (DA NANG INTL ARP, VN) observed 0100 UTC 18 April 2021
Temperature: 28.0°C (82°F)
Dewpoint: 21.0°C (70°F) [RH = 66%]
Pressure (altimeter): 29.94 inches Hg (1014.0 mb)
Winds: variable direction winds at 2 MPH (2 knots; 1.0 m/s)
Visibility: 6 or more miles (10+ km)
Ceiling: ceiling and visibility are OK
Clouds: unknown
Weather: no significant weather observed at this time

METAR text: VVDN 180030Z VRB02KT CAVOK 27/20 Q1014 NOSIG
Conditions at: VVDN (DA NANG INTL ARP, VN) observed 0030 UTC 18 April 2021
Temperature: 27.0°C (81°F)
Dewpoint: 20.0°C (68°F) [RH = 66%]
Pressure (altimeter): 29.94 inches Hg (1014.0 mb)
Winds: variable direction winds at 2 MPH (2 knots; 1.0 m/s)
Visibility: 6 or more miles (10+ km)
Ceiling: ceiling and visibility are OK
Clouds: unknown
Weather: no significant weather observed at this time

METAR text: VVDN 180000Z VRB01KT 9999 FEW015 26/21 Q1013 NOSIG
Conditions at: VVDN (DA NANG INTL ARP, VN) observed 0000 UTC 18 April 2021
Temperature: 26.0°C (79°F)
Dewpoint: 21.0°C (70°F) [RH = 74%]
Pressure (altimeter): 29.91 inches Hg (1013.0 mb)
Winds: variable direction winds at 1 MPH (1 knots; 0.5 m/s)
Visibility: 6 or more miles (10+ km)
Ceiling: at least 12,000 feet AGL
Clouds: few clouds at 1500 feet AGL
Weather: no significant weather observed at this time

METAR text: VVDN 172330Z 24001KT 9999 FEW015 25/21 Q1013 NOSIG
Conditions at: VVDN (DA NANG INTL ARP, VN) observed 2330 UTC 17 April 2021
Temperature: 25.0°C (77°F)
Dewpoint: 21.0°C (70°F) [RH = 79%]
Pressure (altimeter): 29.91 inches Hg (1013.0 mb)
Winds: from the WSW (240 degrees) at 1 MPH (1 knots; 0.5 m/s)
Visibility: 6 or more miles (10+ km)
Ceiling: at least 12,000 feet AGL
Clouds: few clouds at 1500 feet AGL
Weather: no significant weather observed at this time

METAR text: VVDN 172300Z 21002KT 9999 FEW015 23/20 Q1013 NOSIG
Conditions at: VVDN (DA NANG INTL ARP, VN) observed 2300 UTC 17 April 2021
Temperature: 23.0°C (73°F)
Dewpoint: 20.0°C (68°F) [RH = 83%]
Pressure (altimeter): 29.91 inches Hg (1013.0 mb)
Winds: from the SSW (210 degrees) at 2 MPH (2 knots; 1.0 m/s)
Visibility: 6 or more miles (10+ km)
Ceiling: at least 12,000 feet AGL
Clouds: few clouds at 1500 feet AGL
Weather: no significant weather observed at this time

METAR text: VVDN 172230Z 22003KT 8000 FEW015 22/20 Q1013 NOSIG
Conditions at: VVDN (DA NANG INTL ARP, VN) observed 2230 UTC 17 April 2021
Temperature: 22.0°C (72°F)
Dewpoint: 20.0°C (68°F) [RH = 88%]
Pressure (altimeter): 29.91 inches Hg (1013.0 mb)
Winds: from the SW (220 degrees) at 3 MPH (3 knots; 1.5 m/s)
Visibility: 5 miles ( 8 km)
Ceiling: at least 12,000 feet AGL
Clouds: few clouds at 1500 feet AGL
Weather: no significant weather observed at this time

METAR text: VVDN 172200Z 21002KT 7000 FEW015 22/21 Q1013 NOSIG
Conditions at: VVDN (DA NANG INTL ARP, VN) observed 2200 UTC 17 April 2021
Temperature: 22.0°C (72°F)
Dewpoint: 21.0°C (70°F) [RH = 94%]
Pressure (altimeter): 29.91 inches Hg (1013.0 mb)
Winds: from the SSW (210 degrees) at 2 MPH (2 knots; 1.0 m/s)
Visibility: 4 miles ( 7 km)
Ceiling: at least 12,000 feet AGL
Clouds: few clouds at 1500 feet AGL
Weather: no significant weather observed at this time

METAR text: VVDN 172130Z 22003KT 8000 FEW015 23/22 Q1013 NOSIG
Conditions at: VVDN (DA NANG INTL ARP, VN) observed 2130 UTC 17 April 2021
Temperature: 23.0°C (73°F)
Dewpoint: 22.0°C (72°F) [RH = 94%]
Pressure (altimeter): 29.91 inches Hg (1013.0 mb)
Winds: from the SW (220 degrees) at 3 MPH (3 knots; 1.5 m/s)
Visibility: 5 miles ( 8 km)
Ceiling: at least 12,000 feet AGL
Clouds: few clouds at 1500 feet AGL
Weather: no significant weather observed at this time

METAR text: VVDN 172100Z 22001KT 8000 FEW015 23/22 Q1013 NOSIG
Conditions at: VVDN (DA NANG INTL ARP, VN) observed 2100 UTC 17 April 2021
Temperature: 23.0°C (73°F)
Dewpoint: 22.0°C (72°F) [RH = 94%]
Pressure (altimeter): 29.91 inches Hg (1013.0 mb)
Winds: from the SW (220 degrees) at 1 MPH (1 knots; 0.5 m/s)
Visibility: 5 miles ( 8 km)
Ceiling: at least 12,000 feet AGL
Clouds: few clouds at 1500 feet AGL
Weather: no significant weather observed at this time

METAR text: VVDN 172030Z 22002KT 8000 FEW015 24/22 Q1013 NOSIG
Conditions at: VVDN (DA NANG INTL ARP, VN) observed 2030 UTC 17 April 2021
Temperature: 24.0°C (75°F)
Dewpoint: 22.0°C (72°F) [RH = 89%]
Pressure (altimeter): 29.91 inches Hg (1013.0 mb)
Winds: from the SW (220 degrees) at 2 MPH (2 knots; 1.0 m/s)
Visibility: 5 miles ( 8 km)
Ceiling: at least 12,000 feet AGL
Clouds: few clouds at 1500 feet AGL
Weather: no significant weather observed at this time

METAR text: VVDN 172000Z 00000KT 8000 FEW015 24/22 Q1013 NOSIG
Conditions at: VVDN (DA NANG INTL ARP, VN) observed 2000 UTC 17 April 2021
Temperature: 24.0°C (75°F)
Dewpoint: 22.0°C (72°F) [RH = 89%]
Pressure (altimeter): 29.91 inches Hg (1013.0 mb)
Winds: calm
Visibility: 5 miles ( 8 km)
Ceiling: at least 12,000 feet AGL
Clouds: few clouds at 1500 feet AGL
Weather: no significant weather observed at this time

METAR text: VVDN 171930Z VRB01KT 8000 FEW015 24/22 Q1013 NOSIG
Conditions at: VVDN (DA NANG INTL ARP, VN) observed 1930 UTC 17 April 2021
Temperature: 24.0°C (75°F)
Dewpoint: 22.0°C (72°F) [RH = 89%]
Pressure (altimeter): 29.91 inches Hg (1013.0 mb)
Winds: variable direction winds at 1 MPH (1 knots; 0.5 m/s)
Visibility: 5 miles ( 8 km)
Ceiling: at least 12,000 feet AGL
Clouds: few clouds at 1500 feet AGL
Weather: no significant weather observed at this time

METAR text: VVDN 171900Z 23002KT 8000 FEW015 24/22 Q1013 NOSIG
Conditions at: VVDN (DA NANG INTL ARP, VN) observed 1900 UTC 17 April 2021
Temperature: 24.0°C (75°F)
Dewpoint: 22.0°C (72°F) [RH = 89%]
Pressure (altimeter): 29.91 inches Hg (1013.0 mb)
Winds: from the SW (230 degrees) at 2 MPH (2 knots; 1.0 m/s)
Visibility: 5 miles ( 8 km)
Ceiling: at least 12,000 feet AGL
Clouds: few clouds at 1500 feet AGL
Weather: no significant weather observed at this time

METAR text: VVDN 171830Z 24001KT 8000 FEW015 24/22 Q1014 NOSIG
Conditions at: VVDN (DA NANG INTL ARP, VN) observed 1830 UTC 17 April 2021
Temperature: 24.0°C (75°F)
Dewpoint: 22.0°C (72°F) [RH = 89%]
Pressure (altimeter): 29.94 inches Hg (1014.0 mb)
Winds: from the WSW (240 degrees) at 1 MPH (1 knots; 0.5 m/s)
Visibility: 5 miles ( 8 km)
Ceiling: at least 12,000 feet AGL
Clouds: few clouds at 1500 feet AGL
Weather: no significant weather observed at this time

METAR text: VVDN 171800Z VRB01KT 9999 FEW015 24/22 Q1014 NOSIG
Conditions at: VVDN (DA NANG INTL ARP, VN) observed 1800 UTC 17 April 2021
Temperature: 24.0°C (75°F)
Dewpoint: 22.0°C (72°F) [RH = 89%]
Pressure (altimeter): 29.94 inches Hg (1014.0 mb)
Winds: variable direction winds at 1 MPH (1 knots; 0.5 m/s)
Visibility: 6 or more miles (10+ km)
Ceiling: at least 12,000 feet AGL
Clouds: few clouds at 1500 feet AGL
Weather: no significant weather observed at this time

METAR text: VVDN 171730Z 22001KT 9999 FEW015 24/22 Q1014 NOSIG
Conditions at: VVDN (DA NANG INTL ARP, VN) observed 1730 UTC 17 April 2021
Temperature: 24.0°C (75°F)
Dewpoint: 22.0°C (72°F) [RH = 89%]
Pressure (altimeter): 29.94 inches Hg (1014.0 mb)
Winds: from the SW (220 degrees) at 1 MPH (1 knots; 0.5 m/s)
Visibility: 6 or more miles (10+ km)
Ceiling: at least 12,000 feet AGL
Clouds: few clouds at 1500 feet AGL
Weather: no significant weather observed at this time

METAR text: VVDN 171700Z 25001KT 9999 FEW015 25/22 Q1014 NOSIG
Conditions at: VVDN (DA NANG INTL ARP, VN) observed 1700 UTC 17 April 2021
Temperature: 25.0°C (77°F)
Dewpoint: 22.0°C (72°F) [RH = 83%]
Pressure (altimeter): 29.94 inches Hg (1014.0 mb)
Winds: from the WSW (250 degrees) at 1 MPH (1 knots; 0.5 m/s)
Visibility: 6 or more miles (10+ km)
Ceiling: at least 12,000 feet AGL
Clouds: few clouds at 1500 feet AGL
Weather: no significant weather observed at this time

METAR text: VVDN 171630Z 23001KT 9999 FEW015 25/23 Q1014 NOSIG
Conditions at: VVDN (DA NANG INTL ARP, VN) observed 1630 UTC 17 April 2021
Temperature: 25.0°C (77°F)
Dewpoint: 23.0°C (73°F) [RH = 89%]
Pressure (altimeter): 29.94 inches Hg (1014.0 mb)
Winds: from the SW (230 degrees) at 1 MPH (1 knots; 0.5 m/s)
Visibility: 6 or more miles (10+ km)
Ceiling: at least 12,000 feet AGL
Clouds: few clouds at 1500 feet AGL
Weather: no significant weather observed at this time

METAR text: VVDN 171600Z 00000KT 9999 FEW015 25/23 Q1015 NOSIG
Conditions at: VVDN (DA NANG INTL ARP, VN) observed 1600 UTC 17 April 2021
Temperature: 25.0°C (77°F)
Dewpoint: 23.0°C (73°F) [RH = 89%]
Pressure (altimeter): 29.97 inches Hg (1015.0 mb)
Winds: calm
Visibility: 6 or more miles (10+ km)
Ceiling: at least 12,000 feet AGL
Clouds: few clouds at 1500 feet AGL
Weather: no significant weather observed at this time

METAR text: VVDN 171530Z VRB01KT 9999 FEW015 26/23 Q1015 NOSIG
Conditions at: VVDN (DA NANG INTL ARP, VN) observed 1530 UTC 17 April 2021
Temperature: 26.0°C (79°F)
Dewpoint: 23.0°C (73°F) [RH = 84%]
Pressure (altimeter): 29.97 inches Hg (1015.0 mb)
Winds: variable direction winds at 1 MPH (1 knots; 0.5 m/s)
Visibility: 6 or more miles (10+ km)
Ceiling: at least 12,000 feet AGL
Clouds: few clouds at 1500 feet AGL
Weather: no significant weather observed at this time

METAR text: VVDN 171500Z 14002KT 9999 FEW015 26/23 Q1014 NOSIG
Conditions at: VVDN (DA NANG INTL ARP, VN) observed 1500 UTC 17 April 2021
Temperature: 26.0°C (79°F)
Dewpoint: 23.0°C (73°F) [RH = 84%]
Pressure (altimeter): 29.94 inches Hg (1014.0 mb)
Winds: from the SE (140 degrees) at 2 MPH (2 knots; 1.0 m/s)
Visibility: 6 or more miles (10+ km)
Ceiling: at least 12,000 feet AGL
Clouds: few clouds at 1500 feet AGL
Weather: no significant weather observed at this time

METAR text: VVDN 171430Z 14002KT 9999 FEW015 26/23 Q1014 NOSIG
Conditions at: VVDN (DA NANG INTL ARP, VN) observed 1430 UTC 17 April 2021
Temperature: 26.0°C (79°F)
Dewpoint: 23.0°C (73°F) [RH = 84%]
Pressure (altimeter): 29.94 inches Hg (1014.0 mb)
Winds: from the SE (140 degrees) at 2 MPH (2 knots; 1.0 m/s)
Visibility: 6 or more miles (10+ km)
Ceiling: at least 12,000 feet AGL
Clouds: few clouds at 1500 feet AGL
Weather: no significant weather observed at this time

METAR text: VVDN 171400Z 14002KT 9999 FEW015 26/23 Q1014 NOSIG
Conditions at: VVDN (DA NANG INTL ARP, VN) observed 1400 UTC 17 April 2021
Temperature: 26.0°C (79°F)
Dewpoint: 23.0°C (73°F) [RH = 84%]
Pressure (altimeter): 29.94 inches Hg (1014.0 mb)
Winds: from the SE (140 degrees) at 2 MPH (2 knots; 1.0 m/s)
Visibility: 6 or more miles (10+ km)
Ceiling: at least 12,000 feet AGL
Clouds: few clouds at 1500 feet AGL
Weather: no significant weather observed at this time

METAR text: VVDN 171330Z 15002KT 9999 FEW015 26/23 Q1014 NOSIG
Conditions at: VVDN (DA NANG INTL ARP, VN) observed 1330 UTC 17 April 2021
Temperature: 26.0°C (79°F)
Dewpoint: 23.0°C (73°F) [RH = 84%]
Pressure (altimeter): 29.94 inches Hg (1014.0 mb)
Winds: from the SSE (150 degrees) at 2 MPH (2 knots; 1.0 m/s)
Visibility: 6 or more miles (10+ km)
Ceiling: at least 12,000 feet AGL
Clouds: few clouds at 1500 feet AGL
Weather: no significant weather observed at this time

METAR text: VVDN 171300Z VRB01KT 9999 FEW015 26/23 Q1013 NOSIG
Conditions at: VVDN (DA NANG INTL ARP, VN) observed 1300 UTC 17 April 2021
Temperature: 26.0°C (79°F)
Dewpoint: 23.0°C (73°F) [RH = 84%]
Pressure (altimeter): 29.91 inches Hg (1013.0 mb)
Winds: variable direction winds at 1 MPH (1 knots; 0.5 m/s)
Visibility: 6 or more miles (10+ km)
Ceiling: at least 12,000 feet AGL
Clouds: few clouds at 1500 feet AGL
Weather: no significant weather observed at this time

METAR text: VVDN 171230Z 17001KT 9999 FEW015 SCT060 26/23 Q1013 NOSIG
Conditions at: VVDN (DA NANG INTL ARP, VN) observed 1230 UTC 17 April 2021
Temperature: 26.0°C (79°F)
Dewpoint: 23.0°C (73°F) [RH = 84%]
Pressure (altimeter): 29.91 inches Hg (1013.0 mb)
Winds: from the S (170 degrees) at 1 MPH (1 knots; 0.5 m/s)
Visibility: 6 or more miles (10+ km)
Ceiling: at least 12,000 feet AGL
Clouds: few clouds at 1500 feet AGL
scattered clouds at 6000 feet AGL
Weather: no significant weather observed at this time

METAR text: VVDN 171200Z VRB02KT 9999 FEW015 SCT060 27/23 Q1013 NOSIG
Conditions at: VVDN (DA NANG INTL ARP, VN) observed 1200 UTC 17 April 2021
Temperature: 27.0°C (81°F)
Dewpoint: 23.0°C (73°F) [RH = 79%]
Pressure (altimeter): 29.91 inches Hg (1013.0 mb)
Winds: variable direction winds at 2 MPH (2 knots; 1.0 m/s)
Visibility: 6 or more miles (10+ km)
Ceiling: at least 12,000 feet AGL
Clouds: few clouds at 1500 feet AGL
scattered clouds at 6000 feet AGL
Weather: no significant weather observed at this time

METAR text: VVDN 171130Z VRB01KT 9999 FEW015 SCT060 27/23 Q1012 NOSIG
Conditions at: VVDN (DA NANG INTL ARP, VN) observed 1130 UTC 17 April 2021
Temperature: 27.0°C (81°F)
Dewpoint: 23.0°C (73°F) [RH = 79%]
Pressure (altimeter): 29.88 inches Hg (1012.0 mb)
Winds: variable direction winds at 1 MPH (1 knots; 0.5 m/s)
Visibility: 6 or more miles (10+ km)
Ceiling: at least 12,000 feet AGL
Clouds: few clouds at 1500 feet AGL
scattered clouds at 6000 feet AGL
Weather: no significant weather observed at this time

METAR text: VVDN 171100Z 07003KT 9999 FEW015 SCT060 27/23 Q1012 NOSIG
Conditions at: VVDN (DA NANG INTL ARP, VN) observed 1100 UTC 17 April 2021
Temperature: 27.0°C (81°F)
Dewpoint: 23.0°C (73°F) [RH = 79%]
Pressure (altimeter): 29.88 inches Hg (1012.0 mb)
Winds: from the ENE (70 degrees) at 3 MPH (3 knots; 1.5 m/s)
Visibility: 6 or more miles (10+ km)
Ceiling: at least 12,000 feet AGL
Clouds: few clouds at 1500 feet AGL
scattered clouds at 6000 feet AGL
Weather: no significant weather observed at this time

METAR text: VVDN 171030Z 12004KT 9999 FEW015 SCT060 27/23 Q1012 NOSIG
Conditions at: VVDN (DA NANG INTL ARP, VN) observed 1030 UTC 17 April 2021
Temperature: 27.0°C (81°F)
Dewpoint: 23.0°C (73°F) [RH = 79%]
Pressure (altimeter): 29.88 inches Hg (1012.0 mb)
Winds: from the ESE (120 degrees) at 5 MPH (4 knots; 2.1 m/s)
Visibility: 6 or more miles (10+ km)
Ceiling: at least 12,000 feet AGL
Clouds: few clouds at 1500 feet AGL
scattered clouds at 6000 feet AGL
Weather: no significant weather observed at this time

METAR text: VVDN 171000Z 10005KT 060V130 9999 FEW015 SCT060 27/23 Q1011 NOSIG
Conditions at: VVDN (DA NANG INTL ARP, VN) observed 1000 UTC 17 April 2021
Temperature: 27.0°C (81°F)
Dewpoint: 23.0°C (73°F) [RH = 79%]
Pressure (altimeter): 29.85 inches Hg (1011.0 mb)
Winds: from the E (100 degrees) at 6 MPH (5 knots; 2.6 m/s)
Visibility: 6 or more miles (10+ km)
Ceiling: at least 12,000 feet AGL
Clouds: few clouds at 1500 feet AGL
scattered clouds at 6000 feet AGL
Weather: no significant weather observed at this time

METAR text: VVDN 170930Z 09007KT 9999 FEW015 SCT060 28/23 Q1011 NOSIG
Conditions at: VVDN (DA NANG INTL ARP, VN) observed 0930 UTC 17 April 2021
Temperature: 28.0°C (82°F)
Dewpoint: 23.0°C (73°F) [RH = 74%]
Pressure (altimeter): 29.85 inches Hg (1011.0 mb)
Winds: from the E (90 degrees) at 8 MPH (7 knots; 3.6 m/s)
Visibility: 6 or more miles (10+ km)
Ceiling: at least 12,000 feet AGL
Clouds: few clouds at 1500 feet AGL
scattered clouds at 6000 feet AGL
Weather: no significant weather observed at this time

Forecast for: VVDN (DA NANG INTL ARP, VN)
Text: TAF VVDN 181700Z 1818/1918 22003KT 9999 FEW015
Forecast period: 1800 to 2100 UTC 18 April 2021
Forecast type: FROM: standard forecast or significant change
Winds: from the SW (220 degrees) at 3 MPH (3 knots; 1.5 m/s)
Visibility: 6 or more miles (10+ km)
Ceiling: at least 12,000 feet AGL
Clouds: few clouds at 1500 feet AGL
Weather: no significant weather forecast for this period
Text: BECMG 1821/1822 4500 BR
Forecast period: 2100 UTC 18 April 2021 to 0000 UTC 19 April 2021
Forecast type: BECOMING: Conditions expected to become as follows by 2200 UTC 18 April 2021
Winds: from the SW (220 degrees) at 3 MPH (3 knots; 1.5 m/s)
Visibility: 2.80 miles (4.51 km)
Ceiling: at least 12,000 feet AGL
Clouds: few clouds at 1500 feet AGL
Weather: BR  (mist)
Text: BECMG 1900/1901 8000 NSW
Forecast period: 0000 to 0500 UTC 19 April 2021
Forecast type: BECOMING: Conditions expected to become as follows by 0100 UTC 19 April 2021
Winds: from the SW (220 degrees) at 3 MPH (3 knots; 1.5 m/s)
Visibility: 5 miles (8 km)
Ceiling: at least 12,000 feet AGL
Clouds: few clouds at 1500 feet AGL
Weather: NSW  (no significant weather)
Text: BECMG 1905/1906 10010KT
Forecast period: 0500 to 1300 UTC 19 April 2021
Forecast type: BECOMING: Conditions expected to become as follows by 0600 UTC 19 April 2021
Winds: from the E (100 degrees) at 12 MPH (10 knots; 5.1 m/s)
Visibility: 5 miles (8 km)
Ceiling: at least 12,000 feet AGL
Clouds: few clouds at 1500 feet AGL
Weather: NSW  (no significant weather)
Text: TEMPO 1909/1912 TS FEW013 FEW015CB SCT060
Forecast period: 0900 to 1200 UTC 19 April 2021
Forecast type: TEMPORARY: The following changes expected for less than half the time period
Visibility: missing
Ceiling: at least 12,000 feet AGL
Clouds: few clouds at 1300 feet AGL
few clouds at 1500 feet AGL
scattered clouds at 6000 feet AGL
Weather: TS  (thunderstorm)
Text: BECMG 1913/1914 22004KT
Forecast period: 1300 to 1800 UTC 19 April 2021
Forecast type: BECOMING: Conditions expected to become as follows by 1400 UTC 19 April 2021
Winds: from the SW (220 degrees) at 5 MPH (4 knots; 2.1 m/s)
Visibility: 5 miles (8 km)
Ceiling: at least 12,000 feet AGL
Clouds: few clouds at 1500 feet AGL
Weather: NSW  (no significant weather)